Time;durP1;ratioP1;P1;durP2;ratioP2;P2;SDS_P1;SDS_P2;PMS_P1;PMS_P2;Temp;Humidity;BMP_temperature;BMP_pressure;BME280_temperature;BME280_humidity;BME280_pressure;Samples;Min_cycle;Max_cycle;Signal;HPM_P1;HPM_P2
2022/08/18 00:01:07;;;;;;;14.68;3.47;;;19.20;77.00;;;;;;4065463;29;20028;-86
2022/08/18 00:03:10;;;;;;;6.88;2.60;;;19.20;77.30;;;;;;4066880;29;20029;-86
2022/08/18 00:05:13;;;;;;;10.88;2.53;;;19.20;77.10;;;;;;4084566;29;20031;-87
2022/08/18 00:07:20;;;;;;;11.48;3.33;;;19.10;77.30;;;;;;4076194;28;22138;-87
2022/08/18 00:09:20;;;;;;;10.05;2.67;;;19.10;77.70;;;;;;4076927;29;20024;-86
2022/08/18 00:11:22;;;;;;;18.33;4.28;;;19.10;77.60;;;;;;4077408;29;20035;-86
2022/08/18 00:13:23;;;;;;;18.27;2.95;;;19.10;78.10;;;;;;4058674;29;20414;-86
2022/08/18 00:15:24;;;;;;;8.82;2.17;;;19.00;77.90;;;;;;4065656;29;20028;-86
2022/08/18 00:17:25;;;;;;;7.90;2.13;;;19.00;78.00;;;;;;4079610;29;20102;-86
2022/08/18 00:19:25;;;;;;;11.82;2.75;;;19.00;78.10;;;;;;4075427;29;20032;-85
2022/08/18 00:21:26;;;;;;;6.55;2.00;;;19.00;78.50;;;;;;4086494;29;20039;-85
2022/08/18 00:23:31;;;;;;;13.25;2.70;;;19.10;78.30;;;;;;4080461;29;20031;-86
2022/08/18 00:25:32;;;;;;;9.45;2.38;;;19.00;78.20;;;;;;4072783;29;20032;-85
2022/08/18 00:27:32;;;;;;;9.43;2.83;;;19.00;78.80;;;;;;4074373;29;20043;-85
2022/08/18 00:29:33;;;;;;;11.98;2.83;;;19.00;78.80;;;;;;4075072;29;20527;-85
2022/08/18 00:31:34;;;;;;;6.32;2.10;;;18.90;78.70;;;;;;4073164;29;20051;-85
2022/08/18 00:33:35;;;;;;;4.88;1.67;;;18.90;78.80;;;;;;4079151;29;20039;-85
2022/08/18 00:35:37;;;;;;;3.13;1.58;;;18.90;78.70;;;;;;4078264;29;20038;-84
2022/08/18 00:37:39;;;;;;;9.10;2.47;;;18.90;78.50;;;;;;4059147;29;20113;-84
2022/08/18 00:39:40;;;;;;;3.58;1.65;;;18.90;78.70;;;;;;4058481;29;20054;-82
2022/08/18 00:41:41;;;;;;;6.45;1.95;;;18.90;78.70;;;;;;4079994;29;20505;-85
2022/08/18 00:43:47;;;;;;;4.80;1.85;;;18.90;78.50;;;;;;4063820;29;20061;-84
2022/08/18 00:45:48;;;;;;;9.10;2.25;;;18.80;78.90;;;;;;4078725;29;20047;-84
2022/08/18 00:47:49;;;;;;;6.82;1.63;;;18.80;79.10;;;;;;4077178;29;20402;-84
2022/08/18 00:49:52;;;;;;;5.05;1.52;;;18.80;79.30;;;;;;4067386;29;20782;-84
2022/08/18 00:51:53;;;;;;;5.15;1.70;;;18.80;79.60;;;;;;4053246;29;20042;-84
2022/08/18 00:54:10;;;;;;;6.82;1.63;;;18.80;79.70;;;;;;4073641;29;20111;-84
2022/08/18 00:56:21;;;;;;;7.80;1.80;;;18.80;80.60;;;;;;4076682;29;20063;-84
2022/08/18 00:58:31;;;;;;;7.70;1.52;;;18.80;80.10;;;;;;4078573;29;20031;-84
2022/08/18 01:00:32;;;;;;;11.75;2.35;;;18.80;80.30;;;;;;4080683;29;20031;-84
2022/08/18 01:02:39;;;;;;;5.18;1.40;;;18.70;80.20;;;;;;4083958;29;20032;-85
2022/08/18 01:04:45;;;;;;;8.38;2.50;;;18.80;80.20;;;;;;4076782;29;20064;-84
2022/08/18 01:06:57;;;;;;;9.27;2.10;;;18.70;80.90;;;;;;4083549;29;20110;-84
2022/08/18 01:08:59;;;;;;;8.25;2.40;;;18.70;80.70;;;;;;4078323;29;20110;-85
2022/08/18 01:11:01;;;;;;;9.32;2.95;;;18.80;80.30;;;;;;4081392;29;20024;-84
2022/08/18 01:13:02;;;;;;;6.55;3.00;;;18.80;80.60;;;;;;4078506;29;20032;-83
2022/08/18 01:15:04;;;;;;;6.00;3.38;;;18.80;80.50;;;;;;4063517;29;20035;-85
2022/08/18 01:21:54;;;;;;;10.80;6.75;;;18.80;81.20;;;;;;4081888;29;20040;-84
2022/08/18 01:23:56;;;;;;;11.35;6.70;;;18.80;82.50;;;;;;4088862;29;20039;-84
2022/08/18 01:25:59;;;;;;;13.75;7.80;;;18.80;82.50;;;;;;4085464;29;20091;-86
2022/08/18 01:28:02;;;;;;;17.70;9.57;;;18.80;83.20;;;;;;4072144;29;20059;-85
2022/08/18 01:30:09;;;;;;;14.77;8.82;;;18.80;84.00;;;;;;4084805;29;20042;-86
2022/08/18 01:32:12;;;;;;;23.13;9.38;;;18.80;84.70;;;;;;4081306;29;20039;-86
2022/08/18 01:34:13;;;;;;;17.63;9.23;;;18.80;84.60;;;;;;4079902;29;20027;-85
2022/08/18 01:36:17;;;;;;;20.83;10.38;;;18.80;84.80;;;;;;4080705;29;20067;-86
2022/08/18 01:38:21;;;;;;;17.83;8.85;;;18.80;85.00;;;;;;4080058;29;20083;-86
2022/08/18 01:40:23;;;;;;;14.40;9.52;;;18.90;84.40;;;;;;4086542;29;20071;-84
2022/08/18 01:42:24;;;;;;;21.90;10.70;;;18.80;84.50;;;;;;4079155;29;20035;-84
2022/08/18 01:44:25;;;;;;;23.27;9.90;;;18.90;84.80;;;;;;4077679;28;20058;-86
2022/08/18 01:46:29;;;;;;;21.15;10.95;;;18.90;84.60;;;;;;4075888;29;20991;-85
2022/08/18 01:48:33;;;;;;;15.50;10.73;;;18.90;84.50;;;;;;4067590;29;20032;-86
2022/08/18 01:50:34;;;;;;;17.85;10.55;;;18.90;84.50;;;;;;4068374;29;20032;-87
2022/08/18 01:52:35;;;;;;;19.55;10.18;;;18.90;84.10;;;;;;4078322;29;20031;-87
2022/08/18 01:54:37;;;;;;;20.73;10.40;;;18.90;84.20;;;;;;4060742;29;20399;-86
2022/08/18 01:56:41;;;;;;;20.15;10.45;;;18.90;84.20;;;;;;4063034;29;20088;-86
2022/08/18 01:58:42;;;;;;;;;;;18.90;84.20;;;;;;4066718;29;20108;-86
2022/08/18 02:00:43;;;;;;;17.08;10.30;;;18.90;84.80;;;;;;4079658;29;19925;-84
2022/08/18 02:02:45;;;;;;;16.75;9.60;;;18.90;83.80;;;;;;4076693;29;20099;-85
2022/08/18 02:04:46;;;;;;;18.63;10.65;;;18.90;84.00;;;;;;4065527;29;20103;-86
2022/08/18 02:06:47;;;;;;;13.90;9.50;;;18.90;84.10;;;;;;4075837;29;20558;-86
2022/08/18 02:08:48;;;;;;;17.30;9.48;;;18.90;84.00;;;;;;4078822;29;20035;-86
2022/08/18 02:10:49;;;;;;;28.60;9.57;;;18.90;83.90;;;;;;4078490;29;20095;-89
2022/08/18 02:12:49;;;;;;;18.50;8.45;;;18.90;83.70;;;;;;4082375;29;20438;-86
2022/08/18 02:14:51;;;;;;;14.00;8.77;;;18.90;83.70;;;;;;4078142;29;20035;-85
2022/08/18 02:16:54;;;;;;;17.10;8.43;;;18.90;83.60;;;;;;4081559;29;20120;-84
2022/08/18 02:18:55;;;;;;;16.67;9.00;;;18.90;83.50;;;;;;4077875;29;20035;-86
2022/08/18 02:21:04;;;;;;;16.77;8.65;;;18.90;83.50;;;;;;4080945;29;20059;-86
2022/08/18 02:23:04;;;;;;;13.80;8.57;;;18.90;83.70;;;;;;4080837;29;20502;-84
2022/08/18 02:25:06;;;;;;;17.63;8.68;;;18.90;83.60;;;;;;4064866;29;20032;-85
2022/08/18 02:27:08;;;;;;;17.48;8.32;;;18.90;83.60;;;;;;4065396;29;20088;-84
2022/08/18 02:29:09;;;;;;;18.10;9.43;;;18.80;83.50;;;;;;4075257;29;20035;-87
2022/08/18 02:31:14;;;;;;;17.20;8.98;;;18.90;83.40;;;;;;4080259;29;20020;-86
2022/08/18 02:33:16;;;;;;;14.05;8.68;;;18.80;83.40;;;;;;4080587;29;20067;-84
2022/08/18 02:35:17;;;;;;;22.98;9.25;;;18.90;83.40;;;;;;4083778;29;20599;-86
2022/08/18 02:37:18;;;;;;;15.43;9.57;;;18.90;83.30;;;;;;4062047;29;20040;-87
2022/08/18 02:39:19;;;;;;;16.38;8.57;;;18.80;83.20;;;;;;4078384;29;20028;-86
2022/08/18 02:41:20;;;;;;;20.48;9.35;;;18.90;82.90;;;;;;4065004;29;20437;-85
2022/08/18 02:43:21;;;;;;;16.83;9.13;;;18.90;82.90;;;;;;4078998;29;20035;-87
2022/08/18 02:45:22;;;;;;;19.15;9.48;;;18.90;82.60;;;;;;4063826;29;20063;-85
2022/08/18 02:47:23;;;;;;;18.83;8.60;;;18.90;82.40;;;;;;4058093;29;20040;-84
2022/08/18 02:49:24;;;;;;;19.10;8.50;;;18.90;82.10;;;;;;4072045;29;20028;-85
2022/08/18 02:51:25;;;;;;;17.40;8.68;;;18.90;81.90;;;;;;4081503;29;20398;-86
2022/08/18 02:53:27;;;;;;;13.85;7.35;;;18.90;81.80;;;;;;4074517;29;20024;-85
2022/08/18 02:55:28;;;;;;;19.70;8.90;;;18.90;81.50;;;;;;4081738;28;20031;-86
2022/08/18 02:57:30;;;;;;;20.30;8.15;;;18.90;81.40;;;;;;4069185;29;20040;-84
2022/08/18 02:59:30;;;;;;;17.55;8.70;;;18.90;81.20;;;;;;4066702;29;20123;-84
2022/08/18 03:01:38;;;;;;;18.33;8.70;;;18.90;81.00;;;;;;4079766;28;20051;-86
2022/08/18 03:03:38;;;;;;;12.73;7.18;;;18.90;81.00;;;;;;4089260;29;20036;-85
2022/08/18 03:05:39;;;;;;;16.40;7.75;;;18.90;80.80;;;;;;4078450;29;20042;-85
2022/08/18 03:07:40;;;;;;;16.85;7.88;;;19.00;80.80;;;;;;4081768;29;20370;-84
2022/08/18 03:09:41;;;;;;;11.05;7.20;;;18.90;80.70;;;;;;4080910;29;20501;-85
2022/08/18 03:11:42;;;;;;;18.90;7.65;;;18.90;80.60;;;;;;4079845;29;20035;-84
2022/08/18 03:13:44;;;;;;;16.42;7.35;;;18.90;80.60;;;;;;4081389;28;20067;-84
2022/08/18 03:15:45;;;;;;;14.93;7.38;;;19.00;80.60;;;;;;4067080;29;20032;-84
2022/08/18 03:17:46;;;;;;;16.42;6.43;;;18.90;80.50;;;;;;4064796;29;20123;-84
2022/08/18 03:19:47;;;;;;;14.65;7.10;;;19.00;80.50;;;;;;4081963;29;20054;-84
2022/08/18 03:21:47;;;;;;;18.23;7.30;;;19.00;80.50;;;;;;4081321;29;20035;-84
2022/08/18 03:23:50;;;;;;;11.25;7.03;;;19.00;80.40;;;;;;4049440;29;20064;-84
2022/08/18 03:25:51;;;;;;;17.13;7.38;;;19.00;80.30;;;;;;4083546;29;20051;-83
2022/08/18 03:27:51;;;;;;;14.93;7.25;;;19.00;80.10;;;;;;4067144;29;20090;-82
2022/08/18 03:29:52;;;;;;;25.27;7.25;;;19.00;79.90;;;;;;4069461;29;20061;-84
2022/08/18 03:31:53;;;;;;;17.95;7.80;;;19.10;79.80;;;;;;4085924;29;20031;-84
2022/08/18 03:33:56;;;;;;;19.20;7.10;;;19.10;79.60;;;;;;4084087;28;20023;-84
2022/08/18 03:36:06;;;;;;;16.17;8.00;;;19.10;79.60;;;;;;4087801;29;20030;-84
2022/08/18 03:38:07;;;;;;;14.80;7.43;;;19.10;79.60;;;;;;4084812;29;20032;-83
2022/08/18 03:40:09;;;;;;;15.95;7.45;;;19.00;79.40;;;;;;4088062;29;20114;-83
2022/08/18 03:42:10;;;;;;;16.35;7.63;;;19.10;79.40;;;;;;4081728;29;20113;-83
2022/08/18 03:44:13;;;;;;;19.73;8.88;;;19.00;79.30;;;;;;4089311;29;20040;-82
2022/08/18 03:46:15;;;;;;;17.73;7.95;;;19.00;79.30;;;;;;4086961;29;20038;-84
2022/08/18 03:48:16;;;;;;;18.15;8.00;;;19.10;79.40;;;;;;4081276;29;20088;-85
2022/08/18 03:50:18;;;;;;;14.10;7.72;;;19.10;79.40;;;;;;4076992;29;20031;-85
2022/08/18 03:52:19;;;;;;;15.18;7.45;;;19.00;79.40;;;;;;4076793;29;20032;-84
2022/08/18 03:54:20;;;;;;;18.15;7.72;;;19.00;79.50;;;;;;4075410;29;20104;-85
2022/08/18 03:56:23;;;;;;;19.95;7.45;;;19.00;79.60;;;;;;4081962;29;20036;-85
2022/08/18 03:58:25;;;;;;;24.02;7.72;;;19.00;80.30;;;;;;4064092;29;20123;-83
2022/08/18 04:00:26;;;;;;;11.25;6.88;;;19.00;79.60;;;;;;4076354;29;20302;-84
2022/08/18 04:02:27;;;;;;;20.63;7.82;;;19.00;79.50;;;;;;4075324;29;20070;-85
2022/08/18 04:04:28;;;;;;;15.32;7.15;;;19.00;79.60;;;;;;4072958;29;20064;-85
2022/08/18 04:06:33;;;;;;;12.88;6.78;;;19.00;79.60;;;;;;4057393;29;20107;-85
2022/08/18 04:08:34;;;;;;;17.08;7.15;;;19.00;79.70;;;;;;4078270;29;20040;-85
2022/08/18 04:10:34;;;;;;;17.83;6.90;;;19.00;79.70;;;;;;4077416;29;20050;-85
2022/08/18 04:12:38;;;;;;;15.57;6.13;;;19.00;79.70;;;;;;4060346;29;20037;-84
2022/08/18 04:14:41;;;;;;;12.48;6.00;;;19.10;79.70;;;;;;4075610;29;20042;-85
2022/08/18 04:16:42;;;;;;;13.30;6.25;;;19.10;79.80;;;;;;4055104;29;20228;-85
2022/08/18 04:18:43;;;;;;;13.20;6.68;;;19.10;79.80;;;;;;4077061;29;20116;-84
2022/08/18 04:20:46;;;;;;;17.15;6.88;;;19.10;79.70;;;;;;4078561;29;20035;-85
2022/08/18 04:22:47;;;;;;;;;;;19.10;79.70;;;;;;4078054;29;20040;-84
2022/08/18 04:24:49;;;;;;;11.25;5.78;;;19.10;80.10;;;;;;4081268;29;20414;-85
2022/08/18 04:26:49;;;;;;;14.85;6.43;;;19.10;79.40;;;;;;4079616;29;20432;-85
2022/08/18 04:28:50;;;;;;;20.80;6.82;;;19.20;79.40;;;;;;4081850;29;20032;-84
2022/08/18 04:30:52;;;;;;;16.25;6.85;;;19.10;79.40;;;;;;4064593;29;20043;-84
2022/08/18 04:32:53;;;;;;;18.92;6.68;;;19.20;79.50;;;;;;4069976;29;20042;-85
2022/08/18 04:34:54;;;;;;;15.05;6.60;;;19.20;79.60;;;;;;4083693;28;20027;-84
2022/08/18 04:36:54;;;;;;;15.45;7.28;;;19.20;79.70;;;;;;4082775;29;20035;-85
2022/08/18 04:38:56;;;;;;;10.20;6.47;;;19.20;79.80;;;;;;4084317;29;20032;-85
2022/08/18 04:40:57;;;;;;;10.60;6.22;;;19.20;79.90;;;;;;4079508;29;20040;-85
2022/08/18 04:42:57;;;;;;;10.95;6.50;;;19.20;80.00;;;;;;4087913;29;20090;-84
2022/08/18 04:44:58;;;;;;;15.75;7.28;;;19.20;80.00;;;;;;4081768;29;20335;-84
2022/08/18 04:46:59;;;;;;;12.15;7.15;;;19.30;80.10;;;;;;4086614;29;20035;-84
2022/08/18 04:49:00;;;;;;;13.43;6.88;;;19.30;80.20;;;;;;4066385;29;20028;-84
2022/08/18 04:51:06;;;;;;;14.00;6.68;;;19.30;80.20;;;;;;4066059;29;20086;-83
2022/08/18 04:55:28;;;;;;;18.30;7.07;;;19.30;80.30;;;;;;4068688;29;20046;-83
2022/08/18 04:57:30;;;;;;;15.35;7.65;;;19.40;80.30;;;;;;4084053;29;20023;-83
2022/08/18 04:59:31;;;;;;;14.75;7.95;;;19.40;80.30;;;;;;4077803;29;20046;-83
2022/08/18 05:01:40;;;;;;;12.15;7.55;;;19.30;80.20;;;;;;4085200;29;20694;-83
2022/08/18 05:03:41;;;;;;;17.73;7.93;;;19.40;80.30;;;;;;4084324;29;20160;-83
2022/08/18 05:05:42;;;;;;;14.50;8.40;;;19.40;80.10;;;;;;4080502;29;20162;-86
2022/08/18 05:07:46;;;;;;;11.63;7.85;;;19.40;80.10;;;;;;4083243;29;20044;-86
2022/08/18 05:09:53;;;;;;;12.80;8.63;;;19.40;80.10;;;;;;4082476;29;20107;-86
2022/08/18 05:11:54;;;;;;;18.95;9.95;;;19.40;80.00;;;;;;4069447;29;20103;-86
2022/08/18 05:13:56;;;;;;;15.50;8.90;;;19.50;80.10;;;;;;4084862;28;20034;-87
2022/08/18 05:16:05;;;;;;;16.33;9.18;;;19.40;80.00;;;;;;4082084;29;20137;-88
2022/08/18 05:18:06;;;;;;;15.23;9.30;;;19.50;80.10;;;;;;4072709;29;20036;-87
2022/08/18 05:20:08;;;;;;;16.33;9.80;;;19.50;80.00;;;;;;4087272;29;20114;-87
2022/08/18 05:22:10;;;;;;;13.23;9.23;;;19.40;79.90;;;;;;4089326;29;20035;-86
2022/08/18 05:24:10;;;;;;;16.58;9.45;;;19.40;79.80;;;;;;4085962;28;20043;-85
2022/08/18 05:26:13;;;;;;;24.65;9.48;;;19.50;79.90;;;;;;4086648;28;20031;-86
2022/08/18 05:28:15;;;;;;;16.38;8.75;;;19.50;79.70;;;;;;4077574;29;20024;-86
2022/08/18 05:30:16;;;;;;;19.50;9.20;;;19.50;79.70;;;;;;4091595;28;20024;-87
2022/08/18 05:32:23;;;;;;;23.10;9.15;;;19.50;79.60;;;;;;4087555;28;20130;-87
2022/08/18 05:34:38;;;;;;;13.90;7.80;;;19.50;79.60;;;;;;4090928;29;20027;-87
2022/08/18 05:37:18;;;;;;;13.90;8.73;;;19.50;79.70;;;;;;4081952;29;20062;-86
2022/08/18 05:39:56;;;;;;;12.95;8.70;;;19.50;79.60;;;;;;4075503;29;20522;-88
2022/08/18 05:42:17;;;;;;;16.80;8.23;;;19.50;79.50;;;;;;4075688;29;20059;-86
2022/08/18 05:44:33;;;;;;;10.32;7.95;;;19.50;79.30;;;;;;4077433;29;20029;-87
2022/08/18 05:46:53;;;;;;;16.67;8.40;;;19.50;79.20;;;;;;4068185;29;20071;-85
2022/08/18 05:48:56;;;;;;;15.98;8.70;;;19.50;79.00;;;;;;4065314;29;20024;-87
2022/08/18 05:51:09;;;;;;;11.85;8.20;;;19.50;79.10;;;;;;4083586;29;20027;-87
2022/08/18 05:53:25;;;;;;;;;;;;;;;;;;;;;
2022/08/18 05:58:11;;;;;;;;;;;19.40;78.70;;;;;;4084120;29;20078;-86
2022/08/18 06:00:22;;;;;;;18.33;8.70;;;19.60;79.20;;;;;;4067476;29;19966;-86
2022/08/18 06:02:37;;;;;;;12.95;8.93;;;19.60;78.60;;;;;;4064940;29;20727;-86
2022/08/18 06:04:48;;;;;;;17.35;8.90;;;19.50;78.70;;;;;;4083970;29;20055;-86
2022/08/18 06:07:13;;;;;;;14.32;8.73;;;19.50;78.80;;;;;;4072354;29;20164;-86
2022/08/18 06:10:06;;;;;;;19.90;8.45;;;19.50;79.00;;;;;;4088590;29;20062;-86
2022/08/18 06:12:34;;;;;;;13.80;7.90;;;19.50;79.00;;;;;;4041959;29;20025;-87
2022/08/18 06:14:41;;;;;;;10.75;8.23;;;19.40;79.00;;;;;;4029201;29;20049;-87
2022/08/18 06:17:31;;;;;;;13.00;7.75;;;19.50;79.00;;;;;;4026303;29;20045;-88
2022/08/18 06:20:13;;;;;;;14.80;7.50;;;19.60;79.40;;;;;;4030794;29;20806;-83
2022/08/18 06:22:35;;;;;;;10.82;7.22;;;19.60;79.40;;;;;;4022573;29;20516;-86
2022/08/18 06:25:02;;;;;;;14.27;8.20;;;19.60;79.40;;;;;;4023446;29;20033;-90
2022/08/18 06:27:09;;;;;;;13.90;7.70;;;19.60;79.40;;;;;;4042457;29;20180;-86
2022/08/18 06:29:29;;;;;;;11.18;7.95;;;19.70;79.40;;;;;;4035594;29;20227;-85
2022/08/18 06:32:10;;;;;;;18.95;8.18;;;19.70;79.90;;;;;;4040559;29;20037;-87
2022/08/18 06:34:11;;;;;;;13.35;7.85;;;19.80;80.00;;;;;;4041132;29;20071;-85
2022/08/18 06:36:28;;;;;;;15.50;7.35;;;19.80;80.30;;;;;;4041741;29;20036;-85
2022/08/18 06:39:09;;;;;;;13.35;7.68;;;19.80;80.90;;;;;;4038884;29;20032;-86
2022/08/18 06:42:17;;;;;;;10.75;7.03;;;19.90;81.30;;;;;;4022710;29;20043;-86
2022/08/18 06:44:53;;;;;;;11.77;7.97;;;20.00;81.10;;;;;;4055408;23;20384;-88
2022/08/18 06:47:14;;;;;;;14.70;7.43;;;20.10;81.00;;;;;;4081302;29;20031;-87
2022/08/18 06:49:35;;;;;;;11.38;7.20;;;20.30;81.10;;;;;;4114924;28;20027;-87
2022/08/18 06:51:41;;;;;;;15.52;8.02;;;20.40;81.30;;;;;;4083053;29;20027;-87
2022/08/18 06:54:18;;;;;;;13.68;7.90;;;20.50;81.20;;;;;;4079007;29;20071;-88
2022/08/18 06:56:45;;;;;;;14.65;7.40;;;20.50;79.20;;;;;;4073696;28;20054;-89
2022/08/18 06:58:53;;;;;;;12.95;7.45;;;20.60;79.60;;;;;;4067781;29;20043;-87
2022/08/18 07:01:03;;;;;;;15.77;7.30;;;20.70;79.30;;;;;;4079720;29;20112;-88
2022/08/18 07:03:23;;;;;;;18.60;7.35;;;20.80;79.10;;;;;;4097333;28;20427;-87
2022/08/18 07:05:33;;;;;;;13.88;6.82;;;20.90;78.80;;;;;;4081643;29;20211;-87
2022/08/18 07:07:45;;;;;;;12.25;6.93;;;21.00;78.70;;;;;;4085483;29;20028;-88
2022/08/18 07:09:49;;;;;;;13.55;6.25;;;21.00;78.00;;;;;;4099824;28;20407;-88
2022/08/18 07:12:00;;;;;;;11.13;7.40;;;21.10;77.90;;;;;;4079277;29;20761;-87
2022/08/18 07:14:25;;;;;;;10.07;6.90;;;21.20;76.80;;;;;;4082337;29;20116;-88
2022/08/18 07:16:26;;;;;;;12.10;7.10;;;21.30;77.00;;;;;;4078853;29;20476;-86
2022/08/18 07:18:28;;;;;;;11.90;7.07;;;21.30;76.60;;;;;;4077831;29;20024;-86
2022/08/18 07:20:29;;;;;;;11.80;7.22;;;21.30;76.10;;;;;;4098542;28;20048;-87
2022/08/18 07:23:18;;;;;;;12.15;6.85;;;21.40;75.50;;;;;;4084328;29;20036;-90
2022/08/18 07:25:29;;;;;;;12.00;6.90;;;21.40;74.90;;;;;;4101298;28;20027;-86
2022/08/18 07:27:47;;;;;;;12.30;6.07;;;21.50;74.30;;;;;;4100628;28;20612;-89
2022/08/18 07:30:07;;;;;;;8.40;5.97;;;21.50;74.10;;;;;;4069405;29;20032;-87
2022/08/18 07:32:23;;;;;;;10.48;6.13;;;21.60;73.60;;;;;;4077796;29;20028;-87
2022/08/18 07:34:37;;;;;;;8.48;6.32;;;21.60;74.10;;;;;;4081140;29;20590;-88
2022/08/18 07:37:00;;;;;;;9.60;6.28;;;21.70;73.20;;;;;;4086328;29;20039;-88
2022/08/18 07:39:17;;;;;;;8.38;5.90;;;21.70;73.60;;;;;;4082502;29;20110;-91
2022/08/18 07:41:32;;;;;;;10.90;6.15;;;21.70;72.90;;;;;;4085364;29;20114;-87
2022/08/18 07:44:18;;;;;;;12.73;6.10;;;21.70;72.40;;;;;;4095613;28;20023;-87
2022/08/18 07:47:02;;;;;;;10.10;5.57;;;21.80;72.00;;;;;;4038506;29;20039;-87
2022/08/18 07:49:15;;;;;;;8.60;5.82;;;21.80;71.80;;;;;;4060070;23;20119;-87
2022/08/18 07:51:45;;;;;;;12.73;6.50;;;21.80;71.60;;;;;;4063871;29;20526;-87
2022/08/18 07:54:07;;;;;;;12.45;6.35;;;21.90;71.20;;;;;;4091598;28;20039;-86
2022/08/18 07:56:36;;;;;;;11.70;5.95;;;21.90;71.40;;;;;;4061884;29;20031;-88
2022/08/18 07:58:47;;;;;;;11.57;6.03;;;21.90;71.10;;;;;;4063309;29;20042;-87
2022/08/18 08:01:20;;;;;;;12.85;6.18;;;22.00;70.80;;;;;;4063785;29;20036;-87
2022/08/18 08:03:30;;;;;;;8.73;5.38;;;22.00;70.50;;;;;;4029906;29;20510;-87
2022/08/18 08:05:56;;;;;;;7.68;5.03;;;22.10;71.20;;;;;;4078375;29;20031;-87
2022/08/18 08:08:05;;;;;;;8.32;5.00;;;22.10;71.10;;;;;;4068286;29;20025;-87
2022/08/18 08:10:28;;;;;;;13.68;5.18;;;22.20;71.00;;;;;;4082139;29;20020;-87
2022/08/18 08:12:32;;;;;;;;;;;22.20;70.30;;;;;;4081981;29;20038;-86
2022/08/18 08:14:42;;;;;;;10.93;4.50;;;22.30;68.60;;;;;;4078049;29;19911;-87
2022/08/18 08:16:56;;;;;;;9.50;5.05;;;22.40;69.30;;;;;;4077289;29;20058;-89
2022/08/18 08:19:15;;;;;;;9.88;4.40;;;22.40;68.50;;;;;;4081474;29;20023;-88
2022/08/18 08:21:19;;;;;;;8.02;5.63;;;22.40;68.50;;;;;;4082702;29;20027;-87
2022/08/18 08:23:56;;;;;;;11.15;5.50;;;22.50;68.90;;;;;;4045630;29;20071;-87
2022/08/18 08:26:17;;;;;;;12.10;6.03;;;22.60;69.50;;;;;;4066558;29;20056;-86
2022/08/18 08:28:45;;;;;;;11.43;5.82;;;22.70;68.50;;;;;;4080643;29;20078;-87
2022/08/18 08:31:05;;;;;;;9.05;5.65;;;22.70;66.90;;;;;;4084736;29;20087;-88
2022/08/18 08:33:16;;;;;;;10.85;5.30;;;22.70;67.50;;;;;;4082641;29;20038;-87
2022/08/18 08:35:31;;;;;;;8.25;5.10;;;22.70;67.90;;;;;;4068468;29;20183;-87
2022/08/18 08:37:51;;;;;;;6.13;3.83;;;22.80;67.60;;;;;;4049848;29;20025;-88
2022/08/18 08:40:06;;;;;;;6.00;3.72;;;22.80;65.60;;;;;;4081682;29;20042;-85
2022/08/18 08:42:11;;;;;;;11.77;4.68;;;22.80;65.80;;;;;;4079812;29;20035;-87
2022/08/18 08:44:28;;;;;;;9.82;5.85;;;22.90;65.40;;;;;;4075825;29;20146;-89
2022/08/18 08:46:54;;;;;;;6.55;3.70;;;22.90;64.40;;;;;;4076854;29;20394;-86
2022/08/18 08:49:08;;;;;;;12.25;4.07;;;22.90;63.40;;;;;;4033351;29;20044;-86
2022/08/18 08:51:08;;;;;;;6.80;4.07;;;23.00;64.30;;;;;;4066762;29;20034;-87
2022/08/18 08:53:30;;;;;;;6.28;4.28;;;23.00;64.60;;;;;;4066166;29;20024;-86
2022/08/18 08:55:47;;;;;;;7.63;4.00;;;23.00;63.90;;;;;;4078846;29;20122;-86
2022/08/18 08:58:25;;;;;;;9.75;4.15;;;23.00;61.80;;;;;;4066779;29;20131;-86
2022/08/18 09:00:29;;;;;;;10.18;3.60;;;23.10;61.30;;;;;;4061240;29;20112;-87
2022/08/18 09:02:57;;;;;;;7.30;4.18;;;23.10;62.50;;;;;;4080092;29;20145;-85
2022/08/18 09:05:10;;;;;;;4.82;3.92;;;23.10;63.00;;;;;;4079998;29;20060;-88
2022/08/18 09:07:40;;;;;;;4.70;3.53;;;23.20;63.20;;;;;;4068227;29;20037;-86
2022/08/18 09:10:18;;;;;;;8.38;4.18;;;23.20;62.20;;;;;;4082574;29;20036;-88
2022/08/18 09:12:40;;;;;;;6.75;4.00;;;23.30;61.30;;;;;;4081667;29;20111;-87
2022/08/18 09:15:02;;;;;;;12.32;3.95;;;23.30;61.50;;;;;;4069898;29;20453;-88
2022/08/18 09:17:34;;;;;;;10.60;4.15;;;23.30;61.20;;;;;;4069898;29;20052;-88
2022/08/18 09:20:03;;;;;;;9.77;4.60;;;23.30;60.20;;;;;;4075195;29;20380;-87
2022/08/18 09:23:02;;;;;;;9.13;4.30;;;23.40;60.60;;;;;;4059423;29;20071;-90
2022/08/18 09:25:29;;;;;;;7.75;4.45;;;23.40;60.50;;;;;;4016710;29;20388;-86
2022/08/18 09:27:44;;;;;;;12.10;4.82;;;23.40;60.70;;;;;;4030327;29;20036;-88
2022/08/18 09:29:56;;;;;;;6.32;4.03;;;23.50;60.50;;;;;;4031007;29;20474;-88
2022/08/18 09:32:18;;;;;;;13.18;4.97;;;23.50;60.00;;;;;;4033482;29;20442;-87
2022/08/18 09:34:44;;;;;;;13.63;4.28;;;23.50;59.40;;;;;;4018023;29;20033;-88
2022/08/18 09:37:17;;;;;;;5.70;3.92;;;23.50;60.50;;;;;;4033056;29;20407;-87
2022/08/18 09:42:16;;;;;;;7.10;3.90;;;23.50;59.50;;;;;;4037425;29;20029;-88
2022/08/18 09:44:47;;;;;;;6.13;4.20;;;23.60;59.90;;;;;;4040141;29;20104;-88
2022/08/18 09:46:53;;;;;;;6.03;3.72;;;23.60;59.60;;;;;;4020845;29;20037;-87
2022/08/18 09:49:25;;;;;;;8.32;4.40;;;23.60;59.80;;;;;;4014507;29;20049;-86
2022/08/18 09:51:36;;;;;;;6.95;4.13;;;23.60;59.70;;;;;;4002118;29;20594;-89
2022/08/18 09:53:46;;;;;;;6.53;3.80;;;23.60;59.70;;;;;;4017454;29;20039;-85
2022/08/18 09:55:55;;;;;;;7.50;3.70;;;23.60;59.60;;;;;;4045889;29;20527;-86
2022/08/18 09:58:37;;;;;;;10.15;4.25;;;23.60;58.60;;;;;;4080054;29;20126;-86
2022/08/18 10:00:38;;;;;;;7.13;3.78;;;23.60;58.30;;;;;;4048483;29;20158;-87
2022/08/18 10:02:40;;;;;;;7.85;4.10;;;23.60;58.70;;;;;;4080718;29;20494;-85
2022/08/18 10:04:52;;;;;;;8.50;3.80;;;23.70;58.60;;;;;;4064821;29;20043;-87
2022/08/18 10:06:53;;;;;;;7.80;3.55;;;23.60;58.50;;;;;;4082316;29;20043;-87
2022/08/18 10:09:44;;;;;;;5.72;3.22;;;23.60;58.60;;;;;;4063584;29;20036;-86
2022/08/18 10:12:32;;;;;;;7.38;3.20;;;23.70;58.80;;;;;;4019111;29;20049;-87
2022/08/18 10:15:08;;;;;;;7.32;3.78;;;23.70;59.00;;;;;;4019148;29;20033;-87
2022/08/18 10:18:21;;;;;;;9.73;4.20;;;23.70;59.00;;;;;;4013980;29;20049;-87
2022/08/18 10:20:56;;;;;;;5.60;3.80;;;23.80;58.50;;;;;;3956535;29;20045;-86
2022/08/18 10:22:59;;;;;;;6.35;3.92;;;23.80;58.70;;;;;;3937707;30;20122;-85
2022/08/18 10:25:01;;;;;;;7.65;3.90;;;23.90;59.20;;;;;;3957808;29;20065;-86
2022/08/18 10:27:10;;;;;;;13.20;4.90;;;23.90;59.30;;;;;;3940526;30;20035;-87
2022/08/18 10:29:30;;;;;;;6.10;3.78;;;23.90;59.80;;;;;;3937887;30;20050;-86
2022/08/18 10:31:58;;;;;;;7.40;4.40;;;24.00;59.20;;;;;;3956179;29;20039;-84
2022/08/18 10:34:15;;;;;;;9.60;5.25;;;24.00;59.30;;;;;;3951847;29;20039;-86
2022/08/18 10:36:43;;;;;;;6.53;4.15;;;24.00;58.50;;;;;;3956934;29;20380;-86
2022/08/18 10:38:52;;;;;;;7.68;4.10;;;24.10;58.70;;;;;;3956011;29;20549;-87
2022/08/18 10:41:17;;;;;;;8.48;4.78;;;24.10;58.90;;;;;;3941491;30;20510;-86
2022/08/18 10:43:41;;;;;;;8.02;4.60;;;24.10;58.50;;;;;;3957361;29;20039;-88
2022/08/18 10:45:52;;;;;;;10.82;4.60;;;24.10;58.50;;;;;;3956641;29;20031;-86
2022/08/18 10:48:37;;;;;;;7.35;5.18;;;24.10;58.50;;;;;;3947376;29;20043;-87
2022/08/18 10:51:06;;;;;;;8.40;4.07;;;24.10;59.10;;;;;;4001417;29;20568;-86
2022/08/18 10:53:50;;;;;;;8.02;4.40;;;24.20;59.40;;;;;;3994509;29;20044;-86
2022/08/18 10:56:12;;;;;;;7.57;4.83;;;24.30;59.00;;;;;;4001344;29;20075;-86
2022/08/18 10:58:58;;;;;;;6.18;4.13;;;24.30;59.30;;;;;;3997620;29;20812;-86
2022/08/18 11:01:25;;;;;;;10.52;4.68;;;24.50;59.10;;;;;;4045449;29;20299;-86
2022/08/18 11:03:41;;;;;;;9.00;4.70;;;24.50;58.80;;;;;;4076117;29;20397;-85
2022/08/18 11:05:42;;;;;;;7.65;4.82;;;24.50;58.60;;;;;;4061330;29;20040;-85
2022/08/18 11:10:53;;;;;;;11.00;4.75;;;24.60;58.00;;;;;;4042793;29;20049;-86
2022/08/18 11:13:24;;;;;;;11.50;4.35;;;24.70;58.40;;;;;;4042343;29;20040;-86
2022/08/18 11:15:33;;;;;;;5.95;4.50;;;24.70;57.40;;;;;;4049342;29;20096;-86
2022/08/18 11:18:09;;;;;;;7.60;4.82;;;24.70;57.00;;;;;;4064390;29;20544;-86
2022/08/18 11:20:15;;;;;;;7.07;4.20;;;24.80;57.30;;;;;;4042809;29;20056;-85
2022/08/18 11:22:28;;;;;;;6.90;4.20;;;24.70;57.20;;;;;;4056132;29;20176;-85
2022/08/18 11:24:31;;;;;;;8.68;5.38;;;24.70;57.10;;;;;;4055831;29;20043;-85
2022/08/18 11:26:44;;;;;;;7.68;4.00;;;24.70;57.10;;;;;;4056889;29;20780;-86
2022/08/18 11:28:45;;;;;;;8.02;4.65;;;24.70;57.50;;;;;;4054504;29;20050;-85
2022/08/18 11:30:54;;;;;;;8.10;5.60;;;24.70;57.70;;;;;;4040852;29;20119;-85
2022/08/18 11:32:55;;;;;;;7.32;4.70;;;24.70;57.10;;;;;;4055471;29;20052;-86
2022/08/18 11:34:58;;;;;;;8.55;5.40;;;24.70;57.40;;;;;;4043724;29;20045;-86